Time;durP1;ratioP1;P1;durP2;ratioP2;P2;SDS_P1;SDS_P2;PMS_P1;PMS_P2;Temp;Humidity;BMP_temperature;BMP_pressure;BME280_temperature;BME280_humidity;BME280_pressure;Samples;Min_cycle;Max_cycle;Signal;HPM_P1;HPM_P2
2022/03/16 00:08:07;;;;;;;26.08;15.00;;;4.60;99.90;;;;;;6747578;88;20183;-80
2022/03/16 00:18:08;;;;;;;25.45;14.93;;;4.50;99.90;;;;;;6746002;88;20186;-80
2022/03/16 00:28:09;;;;;;;27.55;14.75;;;4.50;99.90;;;;;;6744371;88;20223;-80
2022/03/16 00:38:12;;;;;;;24.52;14.15;;;4.40;99.90;;;;;;6742329;88;20678;-80
2022/03/16 00:48:12;;;;;;;28.58;14.40;;;4.40;99.90;;;;;;6740921;88;20248;-80
2022/03/16 00:58:13;;;;;;;23.33;12.90;;;4.10;99.90;;;;;;6744190;88;20712;-80
2022/03/16 01:08:13;;;;;;;24.00;12.80;;;3.80;99.90;;;;;;6740563;88;20284;-80
2022/03/16 01:18:15;;;;;;;24.50;13.48;;;3.60;99.90;;;;;;6741597;88;20204;-80
2022/03/16 01:28:16;;;;;;;26.95;13.57;;;3.60;99.90;;;;;;6740800;88;20200;-79
2022/03/16 01:38:16;;;;;;;26.90;13.85;;;3.70;99.90;;;;;;6743705;88;20299;-80
2022/03/16 01:48:18;;;;;;;57.60;13.88;;;3.50;99.90;;;;;;6746673;88;20192;-80
2022/03/16 01:58:19;;;;;;;34.20;12.80;;;3.40;99.90;;;;;;6747996;88;20188;-79
2022/03/16 02:08:20;;;;;;;28.17;12.88;;;3.50;99.90;;;;;;6743602;88;20219;-79
2022/03/16 02:18:20;;;;;;;30.35;13.62;;;3.30;99.90;;;;;;6747397;88;20219;-79
2022/03/16 02:28:22;;;;;;;34.90;13.30;;;3.30;99.90;;;;;;6743256;88;20209;-80
2022/03/16 02:38:23;;;;;;;32.42;14.18;;;3.00;99.90;;;;;;6742123;88;20254;-79
2022/03/16 02:48:24;;;;;;;42.62;14.73;;;3.00;99.90;;;;;;6745302;88;20366;-79
2022/03/16 02:58:24;;;;;;;30.80;15.05;;;3.00;99.90;;;;;;6745848;88;20228;-80
2022/03/16 03:08:25;;;;;;;44.42;18.27;;;3.10;99.90;;;;;;6746165;88;20295;-77
2022/03/16 03:18:25;;;;;;;65.28;22.62;;;3.60;99.90;;;;;;6748123;88;20227;-77
2022/03/16 03:28:26;;;;;;;61.70;22.00;;;4.10;99.90;;;;;;6741576;88;20663;-79
2022/03/16 03:38:26;;;;;;;61.72;20.75;;;4.40;99.90;;;;;;6745036;88;20258;-78
2022/03/16 03:48:27;;;;;;;54.47;19.05;;;4.50;99.90;;;;;;6744677;88;20301;-78
2022/03/16 03:58:28;;;;;;;42.13;13.70;;;4.60;99.90;;;;;;6745329;88;20700;-78
2022/03/16 04:08:28;;;;;;;58.20;21.10;;;4.50;99.90;;;;;;6741042;88;20248;-77
2022/03/16 04:18:29;;;;;;;41.40;12.82;;;4.50;99.90;;;;;;6745349;88;20188;-78
2022/03/16 04:28:29;;;;;;;57.83;20.40;;;4.40;99.90;;;;;;6744795;88;20502;-78
2022/03/16 04:38:30;;;;;;;46.20;18.67;;;4.50;99.90;;;;;;6739977;88;20214;-78
2022/03/16 04:48:30;;;;;;;51.08;18.75;;;4.40;99.90;;;;;;6743790;88;20506;-78
2022/03/16 04:58:32;;;;;;;43.40;16.62;;;4.30;99.90;;;;;;6744226;88;20521;-78
2022/03/16 05:08:37;;;;;;;42.67;17.33;;;4.20;99.90;;;;;;6740468;88;20322;-79
2022/03/16 05:18:40;;;;;;;46.03;18.17;;;4.20;99.90;;;;;;6741328;88;20685;-79
2022/03/16 05:28:40;;;;;;;40.45;15.70;;;4.30;99.90;;;;;;6747220;88;20641;-79
2022/03/16 05:48:45;;;;;;;39.97;15.52;;;4.00;99.90;;;;;;6769351;87;20177;-75
2022/03/16 05:58:45;;;;;;;32.15;12.90;;;4.00;99.90;;;;;;6752740;87;21089;-74
2022/03/16 06:08:46;;;;;;;29.75;11.25;;;4.00;99.90;;;;;;6752605;87;20680;-75
2022/03/16 06:18:47;;;;;;;16.60;6.60;;;4.20;99.90;;;;;;6751019;88;20681;-75
2022/03/16 06:28:48;;;;;;;34.00;13.27;;;4.20;99.90;;;;;;6763188;87;20211;-75
2022/03/16 06:38:48;;;;;;;28.52;12.00;;;4.30;99.90;;;;;;6754696;88;20626;-76
2022/03/16 06:48:49;;;;;;;29.45;12.77;;;4.60;99.90;;;;;;6751559;87;20333;-75
2022/03/16 06:58:51;;;;;;;31.98;13.43;;;4.70;99.90;;;;;;6756665;87;20697;-76
2022/03/16 07:08:51;;;;;;;31.65;14.50;;;4.80;99.90;;;;;;6756724;87;20184;-75
2022/03/16 07:18:52;;;;;;;26.48;12.63;;;5.00;99.90;;;;;;6754669;88;20224;-76
2022/03/16 07:28:53;;;;;;;28.23;13.88;;;5.20;99.90;;;;;;6752714;88;21205;-76
2022/03/16 07:38:54;;;;;;;26.65;13.02;;;5.50;99.90;;;;;;6734775;88;20775;-75
2022/03/16 07:48:54;;;;;;;23.80;13.07;;;5.60;99.90;;;;;;6736434;88;20679;-76
2022/03/16 07:58:58;;;;;;;19.37;10.35;;;6.00;99.90;;;;;;6733925;88;20245;-74
2022/03/16 08:08:59;;;;;;;18.35;10.02;;;6.50;99.90;;;;;;6733929;88;20213;-76
2022/03/16 08:19:00;;;;;;;21.58;11.55;;;7.00;99.90;;;;;;6735454;88;20249;-76
2022/03/16 08:29:00;;;;;;;17.10;9.52;;;7.10;99.90;;;;;;6734673;88;20313;-75
2022/03/16 08:39:03;;;;;;;15.52;8.52;;;7.70;99.90;;;;;;6748500;87;20184;-77
2022/03/16 08:49:04;;;;;;;16.98;9.57;;;7.30;99.90;;;;;;6762163;87;20610;-75
2022/03/16 08:59:04;;;;;;;13.55;7.35;;;7.30;99.90;;;;;;6771053;87;20225;-75
2022/03/16 09:09:05;;;;;;;15.27;7.82;;;8.10;99.90;;;;;;6765493;87;20173;-76
2022/03/16 09:19:05;;;;;;;12.80;6.82;;;8.60;99.90;;;;;;6764124;87;20199;-76
2022/03/16 09:29:08;;;;;;;11.82;6.72;;;8.60;99.90;;;;;;6767350;88;20176;-76
2022/03/16 09:39:09;;;;;;;10.73;6.40;;;9.30;99.90;;;;;;6760060;87;20204;-77
2022/03/16 09:49:14;;;;;;;12.43;7.15;;;9.60;99.90;;;;;;6765132;88;20234;-76
2022/03/16 09:59:15;;;;;;;11.15;6.05;;;9.70;99.90;;;;;;6764549;88;20192;-77
2022/03/16 10:19:46;;;;;;;10.52;6.60;;;10.30;99.90;;;;;;6765786;87;20644;-77
2022/03/16 10:29:50;;;;;;;9.38;5.62;;;10.60;99.90;;;;;;6765498;88;20647;-76
2022/03/16 10:39:52;;;;;;;10.60;6.07;;;11.00;99.90;;;;;;6767711;87;20247;-77
2022/03/16 10:50:09;;;;;;;9.52;6.05;;;11.80;99.90;;;;;;6769982;87;20196;-77
2022/03/16 11:00:10;;;;;;;9.68;5.28;;;12.10;99.90;;;;;;6755172;88;20587;-75
2022/03/16 11:10:11;;;;;;;8.05;4.87;;;11.90;99.90;;;;;;6770489;87;20180;-76
2022/03/16 11:20:13;;;;;;;8.10;4.87;;;12.40;99.90;;;;;;6761768;87;20189;-76
2022/03/16 11:30:29;;;;;;;10.98;5.80;;;12.20;99.90;;;;;;6781275;87;20364;-75
2022/03/16 11:40:30;;;;;;;8.50;5.22;;;12.80;99.90;;;;;;6768996;87;20295;-76
2022/03/16 11:50:31;;;;;;;7.87;5.25;;;13.10;99.90;;;;;;6773070;87;20211;-76
2022/03/16 12:00:38;;;;;;;8.88;5.53;;;13.00;99.90;;;;;;6769152;87;20229;-77
2022/03/16 12:10:46;;;;;;;8.60;5.57;;;13.20;99.90;;;;;;6771212;87;20176;-75
2022/03/16 12:21:04;;;;;;;8.63;5.25;;;13.50;99.90;;;;;;6768564;87;20176;-76
2022/03/16 12:31:12;;;;;;;7.15;4.90;;;13.90;99.90;;;;;;6762979;87;20903;-76
2022/03/16 12:51:52;;;;;;;8.57;5.65;;;13.40;99.90;;;;;;6772608;87;20224;-77
2022/03/16 13:01:55;;;;;;;7.93;5.10;;;13.20;99.90;;;;;;6753446;87;20180;-77
2022/03/16 13:12:10;;;;;;;8.63;4.95;;;13.50;99.90;;;;;;6759761;88;20231;-74
2022/03/16 13:22:14;;;;;;;8.38;5.62;;;13.20;99.90;;;;;;6759115;87;20175;-75
2022/03/16 13:32:16;;;;;;;9.15;5.32;;;13.30;99.90;;;;;;6759239;87;20233;-76
2022/03/16 13:42:16;;;;;;;9.40;5.95;;;13.20;99.90;;;;;;6760659;87;20201;-77
2022/03/16 13:52:24;;;;;;;9.18;5.95;;;13.00;99.90;;;;;;6761155;88;20185;-76
2022/03/16 14:02:27;;;;;;;9.30;5.57;;;13.00;99.90;;;;;;6762716;88;20314;-77
2022/03/16 14:12:33;;;;;;;9.52;5.07;;;12.80;99.90;;;;;;6761065;87;20165;-75
2022/03/16 14:22:34;;;;;;;8.40;5.28;;;12.90;99.90;;;;;;6762031;87;20236;-76
2022/03/16 14:32:34;;;;;;;7.55;4.70;;;13.10;99.90;;;;;;6763199;87;20207;-76
2022/03/16 14:42:35;;;;;;;8.85;5.15;;;13.00;99.90;;;;;;6762863;87;20223;-77
2022/03/16 14:52:36;;;;;;;8.48;5.03;;;13.00;99.90;;;;;;6764818;87;20234;-77
2022/03/16 15:02:36;;;;;;;7.72;5.10;;;12.90;99.90;;;;;;6761476;87;20197;-77
2022/03/16 15:12:38;;;;;;;10.35;5.37;;;13.00;99.90;;;;;;6762466;88;20756;-77
2022/03/16 15:22:39;;;;;;;8.65;5.37;;;12.90;99.90;;;;;;6763778;88;20177;-78
2022/03/16 15:32:40;;;;;;;10.50;6.05;;;13.00;99.90;;;;;;6756006;88;20605;-75
2022/03/16 15:42:43;;;;;;;9.57;6.10;;;12.80;99.90;;;;;;6766705;87;20200;-76
2022/03/16 15:52:44;;;;;;;7.85;5.40;;;12.70;99.90;;;;;;6761945;87;20310;-75
2022/03/16 16:02:47;;;;;;;10.90;5.50;;;12.60;99.90;;;;;;6756652;88;20223;-76
2022/03/16 16:12:48;;;;;;;9.10;5.43;;;12.50;99.90;;;;;;6761792;88;20189;-76
2022/03/16 16:22:48;;;;;;;11.45;5.25;;;12.40;99.90;;;;;;6766155;87;20756;-77
2022/03/16 16:32:51;;;;;;;10.68;6.45;;;12.40;99.90;;;;;;6764408;88;20197;-76
2022/03/16 16:53:14;;;;;;;8.43;5.55;;;12.30;99.90;;;;;;6766047;87;20591;-79
2022/03/16 17:03:19;;;;;;;14.87;6.07;;;12.30;99.90;;;;;;6767345;87;20687;-79
2022/03/16 17:13:25;;;;;;;8.30;4.43;;;12.20;99.90;;;;;;6757483;88;20344;-76
2022/03/16 17:23:26;;;;;;;8.75;5.12;;;12.20;99.90;;;;;;6763106;87;20228;-79
2022/03/16 17:33:28;;;;;;;8.13;5.18;;;12.10;99.90;;;;;;6767050;87;20199;-77
2022/03/16 17:54:10;;;;;;;9.95;6.00;;;12.00;99.90;;;;;;6763944;87;20254;-76
2022/03/16 18:04:11;;;;;;;9.93;6.62;;;11.90;99.90;;;;;;6752805;87;20139;-85
2022/03/16 18:14:14;;;;;;;10.85;6.90;;;11.80;99.90;;;;;;6795268;87;20308;-83
2022/03/16 18:24:15;;;;;;;11.20;7.50;;;11.80;99.90;;;;;;6800522;87;20257;-84
2022/03/16 18:34:15;;;;;;;14.25;7.50;;;11.70;99.90;;;;;;6795606;87;20406;-84
2022/03/16 18:44:16;;;;;;;15.70;8.60;;;11.70;99.90;;;;;;6791765;87;20187;-82
2022/03/16 18:54:18;;;;;;;14.93;8.32;;;11.60;99.90;;;;;;6799353;87;20215;-83
2022/03/16 19:04:19;;;;;;;14.30;8.48;;;11.60;99.90;;;;;;6797884;87;20195;-81
2022/03/16 19:14:23;;;;;;;16.08;9.20;;;11.50;99.90;;;;;;6796389;87;20191;-84
2022/03/16 19:24:23;;;;;;;20.00;10.10;;;11.40;99.90;;;;;;6765964;88;20220;-84
2022/03/16 19:54:56;;;;;;;19.73;11.05;;;11.30;99.90;;;;;;6768160;88;20227;-86
2022/03/16 20:26:43;;;;;;;20.12;12.70;;;11.30;99.90;;;;;;6796309;77;20210;-85
2022/03/16 20:36:44;;;;;;;20.80;12.07;;;11.30;99.90;;;;;;6750849;88;20169;-86
2022/03/16 20:46:44;;;;;;;22.37;13.48;;;11.30;99.90;;;;;;6731311;88;20238;-83
2022/03/16 20:57:26;;;;;;;20.90;13.70;;;11.30;99.90;;;;;;6775707;77;20260;-86
2022/03/16 21:07:27;;;;;;;20.50;13.88;;;11.30;99.90;;;;;;6677436;88;20182;-81
2022/03/16 21:17:28;;;;;;;21.12;13.68;;;11.30;99.90;;;;;;6676900;88;20842;-81
2022/03/16 21:27:29;;;;;;;24.95;13.60;;;11.30;99.90;;;;;;6781610;88;20246;-82
2022/03/16 21:37:30;;;;;;;21.58;13.88;;;11.30;99.90;;;;;;6764327;87;20178;-81
2022/03/16 21:47:34;;;;;;;24.40;13.88;;;11.30;99.90;;;;;;6764111;88;20160;-82
2022/03/16 21:57:35;;;;;;;21.52;14.32;;;11.20;99.90;;;;;;6682989;88;20316;-79
2022/03/16 22:07:36;;;;;;;24.67;14.57;;;11.30;99.90;;;;;;6679985;89;20234;-79
2022/03/16 22:17:36;;;;;;;22.75;14.35;;;11.20;99.90;;;;;;6685915;89;20511;-81
2022/03/16 22:27:37;;;;;;;25.87;14.93;;;11.20;99.90;;;;;;6688354;89;20192;-80
2022/03/16 22:37:37;;;;;;;24.20;14.60;;;11.20;99.90;;;;;;6690061;88;20494;-81
2022/03/16 22:47:42;;;;;;;24.37;14.60;;;11.20;99.90;;;;;;6689472;89;20217;-80
2022/03/16 22:57:43;;;;;;;22.55;13.90;;;11.10;99.90;;;;;;6680160;88;20260;-80
2022/03/16 23:07:44;;;;;;;23.87;14.85;;;11.10;99.90;;;;;;6680254;89;20184;-81
2022/03/16 23:17:46;;;;;;;25.50;14.68;;;11.10;99.90;;;;;;6682598;88;20365;-80
2022/03/16 23:27:48;;;;;;;25.02;15.35;;;11.20;99.90;;;;;;6691304;89;20658;-79
2022/03/16 23:37:48;;;;;;;26.92;15.45;;;11.10;99.90;;;;;;6699652;89;20245;-79
2022/03/16 23:48:30;;;;;;;25.02;15.27;;;11.10;99.90;;;;;;6655813;77;20325;-74
2022/03/16 23:58:31;;;;;;;23.52;14.93;;;11.10;99.90;;;;;;6700055;88;20276;-76
